Wetterdaten: aktuell Dienstag, 05.05.2026 00:10
Datum Zeit Arbeit-Z. Temp. A. Bod.+5cm Temp. A. min Temp. A. max Bl.Temp +1m BTemp -5cm BTemp -10cm BTemp -20cm BTemp -50cm Feuchte I. Feuchte A. BlattFeu +1m BFeucht -5cm BFeucht-10cm BFeucht-20cm BFeucht-50cm Luftdruck Regen Wind Richtung Richtung Sonnenschein ET UV Solar Taupunkt Windchill Windböen Empfang
05.05.2026 00:10 22,9 °C 15,4 °C 14,4 °C 15,4 °C 15,5 °C 15,6 °C 15,6 °C 15,6 °C 15,0 °C 14,4 °C 46 % 80 % 0 lf 200 cb 200 cb 158 cb 88 cb 1009,9 hPa 0,0 l/m² 0,0 km/h (0 Bft) S 172 ° 0 min 0,000 mm 0,0 UV-I 0 W/m² 12,0 °C 15,4 °C 0,0 km/h (0 Bft) 94,87 %
04.05.2026 23:10 22,9 °C 15,5 °C 14,4 °C 15,5 °C 15,6 °C 15,6 °C 15,6 °C 15,6 °C 15,0 °C 13,9 °C 46 % 82 % 2 lf 200 cb 200 cb 158 cb 87 cb 1010,2 hPa 0,0 l/m² 0,3 km/h (0 Bft) S-SO 165 ° 0 min 0,026 mm 0,0 UV-I 0 W/m² 12,4 °C 15,5 °C 1,6 km/h (1 Bft) 95,37 %
04.05.2026 22:10 22,9 °C 16,1 °C 15,0 °C 16,1 °C 16,2 °C 16,1 °C 16,1 °C 15,6 °C 15,0 °C 13,9 °C 46 % 78 % 0 lf 200 cb 200 cb 157 cb 87 cb 1010,1 hPa 0,0 l/m² 0,2 km/h (0 Bft) SO 127 ° 0 min 0,000 mm 0,0 UV-I 0 W/m² 12,3 °C 16,1 °C 1,6 km/h (1 Bft) 93,16 %
04.05.2026 21:10 22,9 °C 16,9 °C 15,6 °C 16,9 °C 17,1 °C 16,1 °C 16,1 °C 15,6 °C 15,0 °C 13,9 °C 46 % 76 % 0 lf 200 cb 200 cb 156 cb 86 cb 1009,9 hPa 0,0 l/m² 0,4 km/h (0 Bft) S-SW 194 ° 0 min 0,025 mm 0,0 UV-I 0 W/m² 12,6 °C 16,9 °C 1,6 km/h (1 Bft) 98,32 %
04.05.2026 20:10 23,0 °C 18,4 °C 17,2 °C 18,4 °C 18,5 °C 16,1 °C 16,1 °C 15,6 °C 15,0 °C 13,9 °C 46 % 68 % 0 lf 200 cb 200 cb 156 cb 86 cb 1010,0 hPa 0,0 l/m² 1,3 km/h (1 Bft) S-SW 196 ° 0 min 0,001 mm 0,0 UV-I 14 W/m² 12,4 °C 18,4 °C 3,2 km/h (1 Bft) 95,83 %
04.05.2026 19:10 22,9 °C 19,6 °C 18,3 °C 19,6 °C 19,6 °C 16,1 °C 16,1 °C 15,6 °C 15,0 °C 13,9 °C 45 % 62 % 0 lf 200 cb 200 cb 156 cb 86 cb 1010,1 hPa 0,0 l/m² 0,6 km/h (0 Bft) S-SW 194 ° 0 min 0,050 mm 0,0 UV-I 62 W/m² 12,1 °C 19,6 °C 3,2 km/h (1 Bft) 96,75 %
04.05.2026 18:10 23,0 °C 20,2 °C 18,9 °C 20,2 °C 20,3 °C 16,1 °C 16,1 °C 15,6 °C 15,0 °C 13,9 °C 44 % 58 % 0 lf 200 cb 200 cb 156 cb 86 cb 1010,0 hPa 0,0 l/m² 1,1 km/h (1 Bft) W-SW 238 ° 20 min 0,102 mm 0,0 UV-I 62 W/m² 11,7 °C 20,2 °C 3,2 km/h (1 Bft) 92,37 %
04.05.2026 17:10 23,1 °C 20,8 °C 20,0 °C 20,8 °C 20,9 °C 16,1 °C 16,1 °C 15,6 °C 15,0 °C 13,9 °C 43 % 54 % 0 lf 200 cb 200 cb 156 cb 86 cb 1009,8 hPa 0,0 l/m² 0,9 km/h (0 Bft) SW 220 ° 60 min 0,152 mm 0,7 UV-I 167 W/m² 11,1 °C 20,8 °C 3,2 km/h (1 Bft) 97,30 %
04.05.2026 16:10 23,1 °C 21,1 °C 21,1 °C 21,1 °C 21,2 °C 16,1 °C 16,1 °C 15,0 °C 15,0 °C 13,9 °C 45 % 53 % 0 lf 200 cb 200 cb 156 cb 86 cb 1010,1 hPa 0,0 l/m² 1,5 km/h (1 Bft) W-NW 301 ° 60 min 0,204 mm 1,5 UV-I 302 W/m² 11,1 °C 21,1 °C 4,8 km/h (1 Bft) 99,15 %
04.05.2026 15:10 23,1 °C 22,2 °C 22,2 °C 22,1 °C 22,2 °C 16,1 °C 16,1 °C 15,0 °C 15,0 °C 13,9 °C 45 % 47 % 0 lf 200 cb 200 cb 155 cb 86 cb 1010,4 hPa 0,0 l/m² 6,5 km/h (2 Bft) W-NW 288 ° 60 min 0,355 mm 2,3 UV-I 390 W/m² 10,3 °C 22,2 °C 14,5 km/h (3 Bft) 93,39 %
04.05.2026 14:10 23,0 °C 21,7 °C 22,8 °C 21,4 °C 21,8 °C 15,6 °C 15,6 °C 15,0 °C 15,0 °C 13,9 °C 45 % 49 % 0 lf 200 cb 200 cb 155 cb 86 cb 1010,8 hPa 0,0 l/m² 2,4 km/h (1 Bft) W-SW 247 ° 60 min 0,001 mm 3,2 UV-I 570 W/m² 10,5 °C 21,7 °C 6,4 km/h (2 Bft) 96,61 %
04.05.2026 13:10 22,9 °C 20,3 °C 20,6 °C 20,2 °C 20,3 °C 15,0 °C 15,0 °C 15,0 °C 15,0 °C 13,9 °C 46 % 55 % 0 lf 200 cb 200 cb 154 cb 85 cb 1011,1 hPa 0,0 l/m² 0,6 km/h (0 Bft) W-NW 292 ° 60 min 0,203 mm 2,2 UV-I 366 W/m² 11,0 °C 20,3 °C 3,2 km/h (1 Bft) 96,75 %
04.05.2026 12:10 22,8 °C 18,7 °C 18,9 °C 18,4 °C 18,7 °C 14,4 °C 14,4 °C 15,0 °C 15,0 °C 13,9 °C 46 % 62 % 0 lf 200 cb 200 cb 154 cb 85 cb 1011,5 hPa 0,0 l/m² 0,6 km/h (0 Bft) W-NW 289 ° 60 min 0,152 mm 1,5 UV-I 272 W/m² 11,3 °C 18,7 °C 3,2 km/h (1 Bft) 94,87 %
04.05.2026 11:10 22,8 °C 17,3 °C 17,2 °C 17,2 °C 17,3 °C 14,4 °C 14,4 °C 15,0 °C 15,0 °C 13,9 °C 44 % 66 % 0 lf 200 cb 200 cb 153 cb 85 cb 1011,9 hPa 0,0 l/m² 0,6 km/h (0 Bft) SO 143 ° 50 min 0,102 mm 1,5 UV-I 301 W/m² 10,9 °C 17,3 °C 3,2 km/h (1 Bft) 94,87 %
04.05.2026 10:10 22,8 °C 16,3 °C 15,6 °C 16,3 °C 16,4 °C 14,4 °C 14,4 °C 15,0 °C 15,0 °C 13,9 °C 43 % 70 % 0 lf 200 cb 200 cb 152 cb 85 cb 1011,9 hPa 0,0 l/m² 0,7 km/h (0 Bft) N-NW 332 ° 35 min 0,101 mm 0,6 UV-I 142 W/m² 10,8 °C 16,3 °C 3,2 km/h (1 Bft) 100,00 %
04.05.2026 09:10 22,8 °C 16,3 °C 15,6 °C 16,2 °C 16,3 °C 13,9 °C 13,9 °C 15,0 °C 15,0 °C 13,9 °C 42 % 66 % 0 lf 200 cb 200 cb 152 cb 85 cb 1011,5 hPa 0,0 l/m² 1,7 km/h (1 Bft) N-NW 340 ° 30 min 0,077 mm 0,6 UV-I 148 W/m² 9,9 °C 16,3 °C 3,2 km/h (1 Bft) 95,93 %
04.05.2026 08:10 22,8 °C 14,7 °C 13,9 °C 14,4 °C 14,7 °C 13,9 °C 13,9 °C 15,0 °C 15,0 °C 13,9 °C 43 % 71 % 0 lf 200 cb 200 cb 150 cb 85 cb 1011,4 hPa 0,0 l/m² 1,9 km/h (1 Bft) N 5 ° 0 min 0,050 mm 0,0 UV-I 135 W/m² 9,5 °C 14,7 °C 4,8 km/h (1 Bft) 99,20 %
04.05.2026 07:10 22,9 °C 12,8 °C 11,7 °C 12,5 °C 12,8 °C 13,3 °C 13,3 °C 15,6 °C 15,0 °C 13,9 °C 44 % 75 % 0 lf 200 cb 200 cb 149 cb 85 cb 1011,6 hPa 0,0 l/m² 0,3 km/h (0 Bft) O 95 ° 0 min 0,026 mm 0,0 UV-I 88 W/m² 8,5 °C 12,8 °C 1,6 km/h (1 Bft) 100,00 %
04.05.2026 06:10 22,9 °C 10,7 °C 8,9 °C 10,7 °C 10,9 °C 13,9 °C 13,9 °C 15,6 °C 15,6 °C 13,9 °C 44 % 81 % 0 lf 200 cb 200 cb 149 cb 85 cb 1011,5 hPa 0,0 l/m² 0,3 km/h (0 Bft) O-SO 114 ° 0 min 0,000 mm 0,0 UV-I 5 W/m² 7,6 °C 10,7 °C 1,6 km/h (1 Bft) 94,02 %
04.05.2026 05:10 22,9 °C 11,3 °C 10,0 °C 11,2 °C 11,3 °C 13,9 °C 13,9 °C 15,6 °C 15,6 °C 13,9 °C 44 % 80 % 0 lf 200 cb 200 cb 147 cb 85 cb 1011,6 hPa 0,0 l/m² 0,8 km/h (0 Bft) O-SO 119 ° 0 min 0,000 mm 0,0 UV-I 0 W/m² 8,0 °C 11,3 °C 3,2 km/h (1 Bft) 98,39 %
04.05.2026 04:10 23,2 °C 10,7 °C 9,4 °C 10,6 °C 10,7 °C 14,4 °C 14,4 °C 16,1 °C 15,6 °C 13,9 °C 44 % 85 % 0 lf 200 cb 200 cb 146 cb 84 cb 1011,8 hPa 0,0 l/m² 0,9 km/h (0 Bft) SO 145 ° 0 min 0,000 mm 0,0 UV-I 0 W/m² 8,3 °C 10,7 °C 3,2 km/h (1 Bft) 90,91 %
04.05.2026 03:10 23,0 °C 11,4 °C 10,0 °C 11,4 °C 11,4 °C 15,0 °C 15,0 °C 16,1 °C 15,6 °C 13,9 °C 44 % 83 % 0 lf 200 cb 200 cb 145 cb 84 cb 1011,7 hPa 0,0 l/m² 0,7 km/h (0 Bft) S-SO 164 ° 0 min 0,025 mm 0,0 UV-I 0 W/m² 8,6 °C 11,4 °C 3,2 km/h (1 Bft) 96,69 %
04.05.2026 02:10 23,1 °C 13,2 °C 11,7 °C 13,2 °C 13,3 °C 15,6 °C 15,6 °C 16,1 °C 15,6 °C 13,9 °C 44 % 80 % 0 lf 200 cb 200 cb 143 cb 84 cb 1011,5 hPa 0,0 l/m² 0,6 km/h (0 Bft) S-SO 164 ° 0 min 0,026 mm 0,0 UV-I 0 W/m² 9,8 °C 13,2 °C 3,2 km/h (1 Bft) 97,27 %
04.05.2026 01:10 23,1 °C 14,3 °C 13,3 °C 14,3 °C 14,4 °C 15,6 °C 15,6 °C 16,1 °C 15,6 °C 13,9 °C 44 % 76 % 0 lf 200 cb 200 cb 142 cb 84 cb 1011,5 hPa 0,0 l/m² 2,2 km/h (1 Bft) S-SO 164 ° 0 min 0,025 mm 0,0 UV-I 0 W/m² 10,1 °C 14,3 °C 3,2 km/h (1 Bft) 99,19 %
04.05.2026 01:00 23,1 °C 14,7 °C 13,3 °C 14,7 °C 14,8 °C 15,6 °C 15,6 °C 16,1 °C 15,6 °C 13,9 °C 44 % 76 % 0 lf 200 cb 200 cb 142 cb 84 cb 1011,5 hPa 0,0 l/m² 1,5 km/h (1 Bft) S-SO 164 ° 0 min 0,025 mm 0,0 UV-I 0 W/m² 10,5 °C 14,7 °C 3,2 km/h (1 Bft) 99,15 %
_ Min-Zeit 07:15 03:55 06:10 03:55 03:55 07:00 07:00 07:20 06:15 01:00 09:05 14:05 01:00 01:00 01:00 01:00 01:00 16:35 - 01:35 - - - - - - 06:10 04:05 01:35 18:05
Minimum _ 22,8 °C 10,6 °C 8,9 °C 10,6 °C 10,7 °C 13,3 °C 13,3 °C 15,0 °C 15,0 °C 13,9 °C 42 % 47 % 0 lf 200 cb 200 cb 142 cb 84 cb 1009,8 hPa - 0,0 km/h (0 Bft) - - - - - - 7,6 °C 10,6 °C 0,0 km/h (0 Bft) 89,08 %
_ Max-Zeit 04:10 14:40 14:10 14:40 14:40 15:10 15:10 01:00 01:00 23:30 11:50 03:25 22:40 01:00 01:00 22:55 23:30 03:35 01:00 15:10 - - 08:35 15:00 14:05 14:05 19:45 14:35 14:50 02:55
Maximum _ 23,2 °C 22,4 °C 22,8 °C 22,2 °C 22,4 °C 16,1 °C 16,1 °C 16,1 °C 15,6 °C 14,4 °C 46 % 85 % 10 lf 200 cb 200 cb 158 cb 88 cb 1011,9 hPa 0,0 l/m² 6,5 km/h
W-NW (2 Bft)
- - 5 min 0,355 mm 3,5 UV-I 636 W/m² 13,2 °C 22,3 °C 14,5 km/h
NW (3 Bft)
100,00 %
Durchschnitt _ 23,0 °C 16,5 °C 15,6 °C 16,4 °C 16,5 °C 15,1 °C 15,1 °C 15,5 °C 15,2 °C 13,9 °C 45 % 69 % 0 lf 200 cb 200 cb 152 cb 85 cb 1010,9 hPa #0,0 l/m² 1,2 km/h (1 Bft) N-NW - #0 min. #0,000 mm 0,0 UV-I 0 W/m² 10,6 °C 16,5 °C 3,7 km/h (1 Bft) 95,99 %
copy; 2009 Dieter Kraft